To NAV CANADA Home Page Login to a new session Search on AWWS site Feedback and Comments Disclaimer Vers la page française équivalente Tips FAQ What's new on the site To the Forecasts and Observations / NOTAM section To "File a Flight Plan" website Publications and other links Update of the User's profile FIC Telephone Numbers My Weather Data Folder Route Weather Data Regional Weather Data Local Weather Data To the Forecasts and Observations / NOTAM section
Request Generated 03/27/2015 at 06:54:40 UTC . Weather information available at that time is displayed.

METAR/TAF

ABBOTSFORD/BC    

METAR CYXX 270600Z CCA 34004KT 10SM SCT160 12/11 A3016 RMK AC4
SLP212=
METAR CYXX 270600Z 34004KT 10SM SCT160 12/11 A3016 RMK AC4 SLP212=
METAR CYXX 270500Z 03005KT 10SM SCT120 BKN210 12/11 A3016 RMK AC3CI2
SLP212=
METAR CYXX 270400Z 01004KT 10SM SCT120 BKN210 13/11 A3016 RMK AC4CI2
SLP212=

TAF CYXX 270538Z 2706/2806 03005KT P6SM SCT120 BKN210
FM271000 VRB03KT P6SM FEW003 SCT180 PROB30 2710/2717 1/2SM FG
VV002
FM272000 VRB03KT P6SM SCT030 TEMPO 2720/2806 P6SM -RA BKN030
RMK NXT FCST BY 271200Z=
Your time UTC time
Weather data provided by Environment Canada and NAV CANADA